Current | Forecast
Updated: 8:00 AM MSK on August 22, 2017
Observed at Volgograd, Russia
Temperature 77°F
Humidity 28%
Dew Point 41°F
Wind East at 13 mph
Pressure 29.98 in (Steady)
Conditions Clear
Visibility -
UV N/A
Clouds
Yesterday's Maximum 91°F
Yesterday's Minimum 68°F approx.
Yesterday's Cooling Degree Days 15 approx.
Sunrise5:04 AM MSK
Sunset7:04 PM MSK
Moon Rise5:31 AM MSK
Moon Set7:31 PM MSK
Moon PhaseMoon Phase
New Moon
Raw METARMETAR URWW 220500Z 10006MPS CAVOK 25/05 Q1015 R06/010070 NOSIG


Monday
. High: 71° F.
Tuesday
. High: 71° F.
Wednesday
. High: 64° F.
Thursday
. High: 62° F.
Friday
. High: 62° F.
Saturday
. High: 60° F.
Sunday
. High: 62° F.
Monday
. High: 68° F.

Units: English | Metric

Find the Weather for any City, State or Zipcode, or Country:

U.S. State List | Severe Weather | Tropical Storms | Ski Conditions
United States | Canada | Central America | South America | Asia | Europe | Australia | Africa | Islands

Weather Underground

© Copyright 2017
The Weather Company, LLC